Happy Bird — ZIRQ6 — position and weather

sailwx.info

Track history (hours):
 
Tides and Currents Weather Stations Pressure Air Temp Water Temp Dewpoint Dewpoint Depression Visibility Wind Speed Wind Dir Waves Ship Positions

Happy Bird

Last reported at 2018-Apr-15 16:57 UTC. Time now 2018-Apr-25 06:58 UTC.
Position N 25°41' W 079°32'.
Warning: this ship's position is 9 days out of date.

Length 119 m; draft 6.7 m.

Type: Tanker. MMSI: 235513000.

Date/timePositionNaut miles runAvg speedWind from/ knotsBaromVisibWave heightAir tempDewpointWater temp
2018-Apr-15 16:57N 25°41' W 079°32'  
2018-Apr-06 09:26N 36°11' W 025°59'511.4
2018-Apr-06 09:00N 36°13' W 025°54'611.5
2018-Apr-06 08:30N 36°14' W 025°47'611.6
2018-Apr-06 08:00N 36°15' W 025°40'611.8
2018-Apr-06 07:30N 36°17' W 025°33'611.5
2018-Apr-06 07:00N 36°18' W 025°26'611.5
2018-Apr-06 06:30N 36°20' W 025°19'611.5
2018-Apr-06 06:00N 36°21' W 025°12'611.8
2018-Apr-06 05:30N 36°23' W 025°05'612.6
2018-Apr-06 05:00N 36°27' W 024°59'612.5
2018-Apr-06 04:30N 36°30' W 024°52'612.8
2018-Apr-06 04:00N 36°34' W 024°46'612.7
2018-Apr-06 03:30N 36°38' W 024°40'713.1
2018-Apr-06 03:00N 36°42' W 024°33'713.2
2018-Apr-06 02:30N 36°46' W 024°27'713.3
2018-Apr-06 02:00N 36°51' W 024°21'713.2
2018-Apr-06 01:30N 36°55' W 024°14'612.8
2018-Apr-06 01:00N 36°59' W 024°08'612.7
2018-Apr-06 00:30N 37°03' W 024°02'612.6
2018-Apr-06 00:00N 37°07' W 023°56'611.5
2018-Apr-05 23:30N 37°12' W 023°54'713.9
2018-Apr-05 23:00N 37°19' W 023°55'713.6
2018-Apr-05 22:30N 37°26' W 023°57'713.9
2018-Apr-05 22:00N 37°33' W 023°59'713.7
2018-Apr-05 21:30N 37°39' W 024°02'713.9
2018-Apr-05 21:00N 37°46' W 024°05'  
Track history (hours):
 
Tides and Currents Weather Stations Pressure Air Temp Water Temp Dewpoint Dewpoint Depression Visibility Wind Speed Wind Dir Waves Ship Positions

Happy Bird

Last reported at 2018-Apr-15 16:57 UTC. Time now 2018-Apr-25 06:58 UTC.
Position N 25°41' W 079°32'.
Warning: this ship's position is 9 days out of date.

Length 119 m; draft 6.7 m.

Type: Tanker. MMSI: 235513000.

Date/timePositionNaut miles runAvg speedWind from/ knotsBaromVisibWave heightAir tempDewpointWater temp
2018-Apr-15 16:57N 25°41' W 079°32'  
2018-Apr-06 09:26N 36°11' W 025°59'511.4
2018-Apr-06 09:00N 36°13' W 025°54'611.5
2018-Apr-06 08:30N 36°14' W 025°47'611.6
2018-Apr-06 08:00N 36°15' W 025°40'611.8
2018-Apr-06 07:30N 36°17' W 025°33'611.5
2018-Apr-06 07:00N 36°18' W 025°26'611.5
2018-Apr-06 06:30N 36°20' W 025°19'611.5
2018-Apr-06 06:00N 36°21' W 025°12'611.8
2018-Apr-06 05:30N 36°23' W 025°05'612.6
2018-Apr-06 05:00N 36°27' W 024°59'612.5
2018-Apr-06 04:30N 36°30' W 024°52'612.8
2018-Apr-06 04:00N 36°34' W 024°46'612.7
2018-Apr-06 03:30N 36°38' W 024°40'713.1
2018-Apr-06 03:00N 36°42' W 024°33'713.2
2018-Apr-06 02:30N 36°46' W 024°27'713.3
2018-Apr-06 02:00N 36°51' W 024°21'713.2
2018-Apr-06 01:30N 36°55' W 024°14'612.8
2018-Apr-06 01:00N 36°59' W 024°08'612.7
2018-Apr-06 00:30N 37°03' W 024°02'612.6
2018-Apr-06 00:00N 37°07' W 023°56'611.5
2018-Apr-05 23:30N 37°12' W 023°54'713.9
2018-Apr-05 23:00N 37°19' W 023°55'713.6
2018-Apr-05 22:30N 37°26' W 023°57'713.9
2018-Apr-05 22:00N 37°33' W 023°59'713.7
2018-Apr-05 21:30N 37°39' W 024°02'713.9
2018-Apr-05 21:00N 37°46' W 024°05'  

Dump ship's entire track history